Hlavní strana
METAR-TAF:

METAR-TAF

Letiště :

Lincolnton-Lincoln County Regional Airport

Lincolnton, Severní Karolína, Spojené státy americké

zeměpisná šířka: 35-28-59N, zeměpisná délka: 081-09-41W, výška: 267 m

Aktuální stav počasí

Zpráva byla vytvořena před 1 hodinou a 19 minutami, v 10:45 UTC
Bezvětří
Teplota 18°C
Vlhkost vzduchu 100%
Tlak 1020 hPa
Viditelnost: 2.4 km
kouřmo

METAR: KIPJ 241045Z AUTO 00000KT 1 1/2SM BR VV007 18/18 A3013 RMK AO2 T01760176

Čas: 08:04 (12:04 UTC)


TAF: chybějící

Stav a předpovědi počasí z více než 4 000 letišť (zprávy METAR a TAF).

Červené a žluté tečky na mapě představují dostupné meteorologické stanice.

Když kurzor umístíte na tečku, zobrazí se název stanice.

Pak kliknutím zobrazíte stav a předpověď počasí.

Chcete-li změnit mapu, kliknutím na zelené tlačítko se znaménkem +mapu přiblížíte, kliknutím na zelené tlačítko se znaménkem – mapu oddálíte a kliknutím na zelené šipky přejdete na sousední mapy.


METAR-TAF: